Time;durP1;ratioP1;P1;durP2;ratioP2;P2;SDS_P1;SDS_P2;PMS_P1;PMS_P2;Temp;Humidity;BMP_temperature;BMP_pressure;BME280_temperature;BME280_humidity;BME280_pressure;Samples;Min_cycle;Max_cycle;Signal;HPM_P1;HPM_P2
2022/09/15 00:01:10;;;;;;;25.70;16.10;;;;;;;;;;5034154;28;20456;-64
2022/09/15 00:03:38;;;;;;;19.90;14.87;;;;;;;;;;5034589;28;20450;-64
2022/09/15 00:06:05;;;;;;;19.70;15.47;;;;;;;;;;5034576;28;20445;-64
2022/09/15 00:08:32;;;;;;;21.50;16.33;;;;;;;;;;5034205;28;20446;-64
2022/09/15 00:11:04;;;;;;;21.00;14.87;;;;;;;;;;5033356;28;20938;-64
2022/09/15 00:13:33;;;;;;;25.43;16.53;;;;;;;;;;5033836;28;20908;-64
2022/09/15 00:16:01;;;;;;;30.70;15.97;;;;;;;;;;5034096;28;20448;-64
2022/09/15 00:18:28;;;;;;;23.77;16.43;;;;;;;;;;5033917;28;20832;-64
2022/09/15 00:20:55;;;;;;;23.73;16.17;;;;;;;;;;5033749;28;20530;-64
2022/09/15 00:23:22;;;;;;;24.70;15.50;;;;;;;;;;5033895;28;20446;-64
2022/09/15 00:25:50;;;;;;;19.37;16.37;;;;;;;;;;5033690;28;20454;-64
2022/09/15 00:28:18;;;;;;;23.23;15.33;;;;;;;;;;5034577;28;20451;-65
2022/09/15 00:30:48;;;;;;;23.90;16.37;;;;;;;;;;5033813;28;20453;-64
2022/09/15 00:33:16;;;;;;;18.00;15.70;;;;;;;;;;5033413;28;20444;-63
2022/09/15 00:35:44;;;;;;;19.90;15.33;;;;;;;;;;5033003;28;20451;-63
2022/09/15 00:38:12;;;;;;;22.80;16.00;;;;;;;;;;5032920;28;20478;-64
2022/09/15 00:40:44;;;;;;;23.67;15.17;;;;;;;;;;5032947;28;20446;-63
2022/09/15 00:43:11;;;;;;;24.43;15.77;;;;;;;;;;5032560;28;20432;-64
2022/09/15 00:45:39;;;;;;;23.50;15.80;;;;;;;;;;5032914;28;20456;-64
2022/09/15 00:48:08;;;;;;;16.77;14.40;;;;;;;;;;5033080;28;20439;-64
2022/09/15 00:50:37;;;;;;;28.90;17.50;;;;;;;;;;5032722;28;20951;-64
2022/09/15 00:53:05;;;;;;;28.67;17.10;;;;;;;;;;5032637;28;20501;-64
2022/09/15 00:55:34;;;;;;;23.33;17.30;;;;;;;;;;5033197;28;20932;-64
2022/09/15 00:58:03;;;;;;;26.60;16.13;;;;;;;;;;5032536;28;20511;-64
2022/09/15 01:00:30;;;;;;;27.23;17.23;;;;;;;;;;5032526;28;20458;-64
2022/09/15 01:02:58;;;;;;;27.93;19.17;;;;;;;;;;5032592;28;20442;-64
2022/09/15 01:05:31;;;;;;;27.70;17.10;;;;;;;;;;5032602;28;20447;-63
2022/09/15 01:08:00;;;;;;;21.30;15.53;;;;;;;;;;5033078;28;20521;-64
2022/09/15 01:10:28;;;;;;;28.73;17.23;;;;;;;;;;5032704;28;20443;-64
2022/09/15 01:12:57;;;;;;;22.83;14.60;;;;;;;;;;5032554;28;20443;-64
2022/09/15 01:15:27;;;;;;;19.80;15.10;;;;;;;;;;5032189;28;20450;-64
2022/09/15 01:18:05;;;;;;;26.07;17.80;;;;;;;;;;5032459;28;20827;-64
2022/09/15 01:20:47;;;;;;;26.57;16.07;;;;;;;;;;5032696;28;20792;-64
2022/09/15 01:23:32;;;;;;;20.87;15.23;;;;;;;;;;5035010;28;20430;-64
2022/09/15 01:26:18;;;;;;;24.87;15.93;;;;;;;;;;5035626;28;20453;-64
2022/09/15 01:28:53;;;;;;;22.30;15.73;;;;;;;;;;5036262;28;20448;-64
2022/09/15 01:31:24;;;;;;;27.27;16.07;;;;;;;;;;4998682;28;1075859;-64
2022/09/15 01:33:54;;;;;;;25.97;16.23;;;;;;;;;;5037424;28;20501;-64
2022/09/15 01:36:25;;;;;;;25.93;16.60;;;;;;;;;;5037781;28;20453;-64
2022/09/15 01:38:59;;;;;;;23.33;16.60;;;;;;;;;;5037234;28;20923;-64
2022/09/15 01:41:28;;;;;;;22.30;15.93;;;;;;;;;;5037898;28;20475;-64
2022/09/15 01:43:59;;;;;;;25.53;15.43;;;;;;;;;;5036931;28;20453;-64
2022/09/15 01:46:30;;;;;;;28.77;15.80;;;;;;;;;;5036724;28;20432;-64
2022/09/15 01:48:58;;;;;;;25.07;15.93;;;;;;;;;;5037030;28;20522;-64
2022/09/15 01:51:27;;;;;;;21.47;15.90;;;;;;;;;;5036565;28;20935;-64
2022/09/15 01:53:55;;;;;;;21.27;14.87;;;;;;;;;;5036752;28;20448;-64
2022/09/15 01:56:22;;;;;;;17.33;13.73;;;;;;;;;;5037037;28;20445;-63
2022/09/15 01:58:51;;;;;;;18.63;13.13;;;;;;;;;;5036737;28;20477;-64
2022/09/15 02:01:20;;;;;;;18.90;13.80;;;;;;;;;;5036726;28;20449;-63
2022/09/15 02:03:50;;;;;;;18.60;13.90;;;;;;;;;;5036579;28;20449;-64
2022/09/15 02:06:22;;;;;;;24.03;13.90;;;;;;;;;;5036279;28;20950;-63
2022/09/15 02:08:51;;;;;;;18.97;14.07;;;;;;;;;;5036845;28;20442;-64
2022/09/15 02:11:19;;;;;;;16.40;13.87;;;;;;;;;;5036467;28;20446;-64
2022/09/15 02:13:48;;;;;;;21.40;14.00;;;;;;;;;;5036132;28;20452;-65
2022/09/15 02:16:18;;;;;;;16.47;13.27;;;;;;;;;;5037182;28;20454;-65
2022/09/15 02:18:50;;;;;;;21.33;13.00;;;;;;;;;;5035960;28;20525;-64
2022/09/15 02:21:22;;;;;;;25.23;14.43;;;;;;;;;;5036403;28;20427;-63
2022/09/15 02:23:51;;;;;;;19.20;15.33;;;;;;;;;;5036398;28;20784;-64
2022/09/15 02:26:20;;;;;;;22.37;13.17;;;;;;;;;;5036440;28;20451;-64
2022/09/15 02:28:49;;;;;;;19.13;13.50;;;;;;;;;;5036640;28;21101;-64
2022/09/15 02:31:18;;;;;;;17.53;12.57;;;;;;;;;;5035422;28;20483;-63
2022/09/15 02:33:48;;;;;;;19.73;12.70;;;;;;;;;;5035709;28;20443;-64
2022/09/15 02:36:16;;;;;;;16.50;13.20;;;;;;;;;;5035910;28;20436;-64
2022/09/15 02:38:47;;;;;;;19.77;11.77;;;;;;;;;;5035904;28;20878;-64
2022/09/15 02:41:14;;;;;;;16.13;12.17;;;;;;;;;;5036185;28;20442;-64
2022/09/15 02:43:45;;;;;;;14.60;13.03;;;;;;;;;;5036105;28;20549;-64
2022/09/15 02:46:12;;;;;;;20.77;13.00;;;;;;;;;;5035805;28;20497;-64
2022/09/15 02:48:39;;;;;;;13.17;11.27;;;;;;;;;;5036081;28;20453;-64
2022/09/15 02:51:07;;;;;;;13.77;10.27;;;;;;;;;;5035780;28;20449;-63
2022/09/15 02:53:35;;;;;;;12.70;10.50;;;;;;;;;;5035696;28;20458;-63
2022/09/15 02:56:04;;;;;;;21.67;10.03;;;;;;;;;;5035982;28;20498;-63
2022/09/15 02:58:31;;;;;;;12.80;9.20;;;;;;;;;;5035543;28;20512;-64
2022/09/15 03:00:59;;;;;;;11.53;9.97;;;;;;;;;;5035026;28;20458;-63
2022/09/15 03:03:26;;;;;;;10.50;9.40;;;;;;;;;;5035555;28;20438;-64
2022/09/15 03:05:53;;;;;;;12.77;10.17;;;;;;;;;;5035367;28;20435;-64
2022/09/15 03:08:21;;;;;;;11.23;8.83;;;;;;;;;;5035628;28;20451;-63
2022/09/15 03:10:48;;;;;;;9.83;8.83;;;;;;;;;;5035340;28;20446;-64
2022/09/15 03:13:17;;;;;;;17.03;9.40;;;;;;;;;;5035619;28;20445;-63
2022/09/15 03:15:44;;;;;;;12.37;10.10;;;;;;;;;;5034888;28;20447;-64
2022/09/15 03:18:12;;;;;;;11.70;9.07;;;;;;;;;;5035710;28;20609;-63
2022/09/15 03:20:39;;;;;;;13.17;9.53;;;;;;;;;;5035136;28;20482;-64
2022/09/15 03:23:06;;;;;;;12.93;9.80;;;;;;;;;;5035171;28;20442;-63
2022/09/15 03:25:33;;;;;;;10.30;8.67;;;;;;;;;;5035270;28;20447;-64
2022/09/15 03:28:00;;;;;;;11.60;9.27;;;;;;;;;;5035360;28;20455;-64
2022/09/15 03:30:29;;;;;;;12.27;8.27;;;;;;;;;;5035084;28;20451;-64
2022/09/15 03:32:56;;;;;;;14.00;9.23;;;;;;;;;;4995617;28;20449;-64
2022/09/15 03:35:23;;;;;;;10.40;8.80;;;;;;;;;;4995649;28;20441;-64
2022/09/15 03:37:51;;;;;;;9.10;8.17;;;;;;;;;;4995698;28;20835;-63
2022/09/15 03:40:18;;;;;;;10.57;9.10;;;;;;;;;;4995443;28;20798;-63
2022/09/15 03:42:45;;;;;;;13.10;8.47;;;;;;;;;;4995141;28;20452;-63
2022/09/15 03:45:12;;;;;;;10.40;8.53;;;;;;;;;;4994793;28;20445;-64
2022/09/15 03:47:41;;;;;;;10.23;9.10;;;;;;;;;;4995361;28;20464;-63
2022/09/15 03:50:08;;;;;;;10.17;8.90;;;;;;;;;;4994845;28;20456;-63
2022/09/15 03:52:35;;;;;;;10.10;8.70;;;;;;;;;;4994949;28;20446;-63
2022/09/15 03:55:02;;;;;;;11.47;8.83;;;;;;;;;;4995145;28;20445;-63
2022/09/15 03:57:29;;;;;;;13.20;9.53;;;;;;;;;;4995523;28;20456;-63
2022/09/15 03:59:57;;;;;;;10.17;8.60;;;;;;;;;;4993333;28;20456;-64
2022/09/15 04:02:24;;;;;;;17.60;9.60;;;;;;;;;;4993492;28;20930;-64
2022/09/15 04:04:53;;;;;;;11.63;9.10;;;;;;;;;;4994175;28;20952;-64
2022/09/15 04:07:20;;;;;;;12.97;8.70;;;;;;;;;;4993726;28;20451;-64
2022/09/15 04:09:48;;;;;;;11.73;8.37;;;;;;;;;;4993975;28;20472;-63
2022/09/15 04:12:15;;;;;;;8.67;7.47;;;;;;;;;;4993840;28;20446;-64
2022/09/15 04:14:42;;;;;;;11.00;8.87;;;;;;;;;;4994205;28;20459;-65
2022/09/15 04:17:10;;;;;;;11.37;8.53;;;;;;;;;;4993970;28;20948;-64
2022/09/15 04:19:38;;;;;;;11.50;9.00;;;;;;;;;;4993502;28;20485;-64
2022/09/15 04:22:06;;;;;;;9.40;8.50;;;;;;;;;;4993785;28;20449;-63
2022/09/15 04:24:33;;;;;;;11.40;9.07;;;;;;;;;;4993881;28;20447;-63
2022/09/15 04:27:01;;;;;;;11.77;10.07;;;;;;;;;;4993889;28;20452;-64
2022/09/15 04:29:28;;;;;;;13.97;10.13;;;;;;;;;;4994043;28;20450;-63
2022/09/15 04:31:55;;;;;;;14.23;9.70;;;;;;;;;;5017585;28;20484;-63
2022/09/15 04:34:23;;;;;;;16.60;10.43;;;;;;;;;;5033453;28;20451;-65
2022/09/15 04:36:50;;;;;;;15.20;11.50;;;;;;;;;;5033237;28;20456;-63
2022/09/15 04:39:19;;;;;;;16.33;12.30;;;;;;;;;;5033236;28;20475;-63
2022/09/15 04:41:46;;;;;;;13.60;11.07;;;;;;;;;;5033533;28;20441;-63
2022/09/15 04:44:13;;;;;;;14.70;11.23;;;;;;;;;;5033049;28;20538;-63
2022/09/15 04:46:40;;;;;;;17.83;11.13;;;;;;;;;;5033044;28;20450;-63
2022/09/15 04:49:07;;;;;;;15.53;11.33;;;;;;;;;;5032603;28;20456;-63
2022/09/15 04:51:35;;;;;;;14.97;11.70;;;;;;;;;;5032817;28;20453;-63
2022/09/15 04:54:02;;;;;;;18.67;12.77;;;;;;;;;;5033482;28;20779;-64
2022/09/15 04:56:30;;;;;;;15.80;10.57;;;;;;;;;;5032495;28;20442;-63
2022/09/15 04:58:58;;;;;;;14.93;11.83;;;;;;;;;;5032246;28;20471;-64
2022/09/15 05:01:26;;;;;;;17.00;11.87;;;;;;;;;;5032388;28;20463;-63
2022/09/15 05:03:54;;;;;;;16.20;12.23;;;;;;;;;;5032821;28;20935;-63
2022/09/15 05:06:22;;;;;;;17.43;11.33;;;;;;;;;;5032857;28;20509;-64
2022/09/15 05:08:50;;;;;;;13.70;11.50;;;;;;;;;;5032963;28;20957;-63
2022/09/15 05:11:18;;;;;;;17.30;12.43;;;;;;;;;;5032893;28;20449;-64
2022/09/15 05:13:47;;;;;;;19.87;12.83;;;;;;;;;;5033172;28;20452;-63
2022/09/15 05:16:15;;;;;;;15.73;11.33;;;;;;;;;;5033024;28;20450;-64
2022/09/15 05:18:44;;;;;;;14.70;12.10;;;;;;;;;;5033267;28;20491;-63
2022/09/15 05:21:12;;;;;;;13.53;10.90;;;;;;;;;;5033201;28;20502;-64
2022/09/15 05:23:39;;;;;;;13.20;11.60;;;;;;;;;;5033062;28;20447;-63
2022/09/15 05:26:07;;;;;;;14.00;10.60;;;;;;;;;;5033093;28;20951;-63
2022/09/15 05:28:36;;;;;;;14.80;11.37;;;;;;;;;;5033112;28;20458;-64
2022/09/15 05:31:08;;;;;;;12.67;11.37;;;;;;;;;;5032619;28;20471;-63
2022/09/15 05:33:36;;;;;;;15.50;11.57;;;;;;;;;;5032865;28;20493;-63
2022/09/15 05:36:03;;;;;;;15.80;11.43;;;;;;;;;;5033149;28;20960;-63
2022/09/15 05:38:31;;;;;;;13.47;10.77;;;;;;;;;;5032934;28;20480;-63
2022/09/15 05:41:02;;;;;;;14.53;10.90;;;;;;;;;;5033592;28;20444;-63
2022/09/15 05:43:31;;;;;;;13.50;10.30;;;;;;;;;;5033168;28;20440;-63
2022/09/15 05:45:58;;;;;;;16.37;10.20;;;;;;;;;;5033293;28;20439;-64
2022/09/15 05:48:27;;;;;;;13.40;10.43;;;;;;;;;;5032832;28;20452;-63
2022/09/15 05:50:55;;;;;;;12.67;9.90;;;;;;;;;;5033197;28;20450;-63
2022/09/15 05:53:22;;;;;;;15.20;10.33;;;;;;;;;;5032907;28;20443;-64
2022/09/15 05:55:49;;;;;;;16.43;11.00;;;;;;;;;;5033525;28;20526;-64
2022/09/15 05:58:17;;;;;;;14.27;10.40;;;;;;;;;;5032695;28;20930;-64
2022/09/15 06:00:44;;;;;;;13.43;9.90;;;;;;;;;;5033000;28;20498;-64
2022/09/15 06:03:14;;;;;;;11.33;9.50;;;;;;;;;;5032874;28;21028;-64
2022/09/15 06:05:43;;;;;;;16.43;10.10;;;;;;;;;;5032617;28;20428;-64
2022/09/15 06:08:10;;;;;;;12.57;8.63;;;;;;;;;;5032875;28;20444;-64
2022/09/15 06:10:37;;;;;;;18.80;11.47;;;;;;;;;;5036189;28;20440;-64
2022/09/15 06:13:04;;;;;;;12.10;9.27;;;;;;;;;;5036343;28;20807;-64
2022/09/15 06:15:32;;;;;;;13.77;10.00;;;;;;;;;;5036316;28;20450;-64
2022/09/15 06:17:59;;;;;;;10.60;8.27;;;;;;;;;;5036291;28;20794;-64
2022/09/15 06:20:26;;;;;;;10.53;8.07;;;;;;;;;;5036723;28;20475;-64
2022/09/15 06:22:55;;;;;;;10.83;8.10;;;;;;;;;;5036467;28;20448;-63
2022/09/15 06:25:22;;;;;;;10.27;7.90;;;;;;;;;;5035874;28;20448;-63
2022/09/15 06:27:50;;;;;;;11.70;7.50;;;;;;;;;;5036074;28;20506;-64
2022/09/15 06:30:17;;;;;;;7.37;6.67;;;;;;;;;;5035810;28;20453;-63
2022/09/15 06:32:45;;;;;;;9.80;8.17;;;;;;;;;;5035500;28;20825;-64
2022/09/15 06:35:12;;;;;;;8.20;6.90;;;;;;;;;;5035806;28;20473;-64
2022/09/15 06:37:39;;;;;;;9.00;6.60;;;;;;;;;;5035623;28;20891;-64
2022/09/15 06:40:08;;;;;;;10.13;7.17;;;;;;;;;;5036230;28;20982;-63
2022/09/15 06:42:36;;;;;;;10.00;6.80;;;;;;;;;;5035795;28;20438;-63
2022/09/15 06:45:03;;;;;;;16.83;7.10;;;;;;;;;;5035810;28;20449;-63
2022/09/15 06:47:32;;;;;;;9.40;5.80;;;;;;;;;;5035779;28;20510;-64
2022/09/15 06:49:59;;;;;;;6.37;5.67;;;;;;;;;;5035422;28;21006;-64
2022/09/15 06:52:27;;;;;;;9.80;6.50;;;;;;;;;;5035772;28;20441;-64
2022/09/15 06:54:54;;;;;;;6.97;5.87;;;;;;;;;;5036112;28;20452;-64
2022/09/15 06:57:23;;;;;;;10.17;6.90;;;;;;;;;;5035556;28;20440;-63
2022/09/15 06:59:50;;;;;;;11.10;5.70;;;;;;;;;;5035444;28;20472;-63
2022/09/15 07:02:17;;;;;;;9.47;6.30;;;;;;;;;;5035067;28;20960;-63
2022/09/15 07:04:44;;;;;;;7.03;5.87;;;;;;;;;;5035140;28;20935;-64
2022/09/15 07:07:11;;;;;;;8.07;5.67;;;;;;;;;;5035788;28;20803;-65
2022/09/15 07:09:38;;;;;;;8.93;5.83;;;;;;;;;;5035360;28;20869;-63
2022/09/15 07:12:06;;;;;;;10.50;5.40;;;;;;;;;;5036072;28;20465;-63
2022/09/15 07:14:34;;;;;;;8.57;5.60;;;;;;;;;;5034804;28;20440;-63
2022/09/15 07:17:01;;;;;;;6.23;5.20;;;;;;;;;;5035281;28;20447;-63
2022/09/15 07:19:29;;;;;;;6.50;5.00;;;;;;;;;;5034585;28;20486;-64
2022/09/15 07:21:56;;;;;;;7.77;5.80;;;;;;;;;;5034376;28;20452;-64
2022/09/15 07:24:23;;;;;;;6.80;5.13;;;;;;;;;;5034719;28;20455;-64
2022/09/15 07:26:50;;;;;;;7.13;5.63;;;;;;;;;;5035264;28;20441;-63
2022/09/15 07:29:18;;;;;;;10.00;4.77;;;;;;;;;;5035117;28;20456;-64
2022/09/15 07:31:46;;;;;;;6.83;4.63;;;;;;;;;;5034979;28;20476;-63
2022/09/15 07:34:13;;;;;;;6.63;4.73;;;;;;;;;;5034840;28;20445;-64
2022/09/15 07:36:41;;;;;;;11.03;4.87;;;;;;;;;;5034866;28;20444;-63
2022/09/15 07:39:08;;;;;;;8.40;4.47;;;;;;;;;;5034849;28;20496;-63
2022/09/15 07:41:35;;;;;;;6.03;3.90;;;;;;;;;;5034809;28;20445;-64
2022/09/15 07:44:03;;;;;;;5.70;4.03;;;;;;;;;;5034650;28;20462;-64
2022/09/15 07:46:31;;;;;;;6.87;4.47;;;;;;;;;;5034765;28;20471;-63
2022/09/15 07:49:01;;;;;;;7.00;4.13;;;;;;;;;;5034552;28;20442;-64
2022/09/15 07:51:29;;;;;;;6.37;3.83;;;;;;;;;;5034662;28;20454;-64
2022/09/15 07:53:56;;;;;;;5.30;3.60;;;;;;;;;;5034444;28;20469;-64
2022/09/15 07:56:24;;;;;;;3.93;3.20;;;;;;;;;;5034995;28;20449;-64
2022/09/15 07:58:51;;;;;;;3.40;3.00;;;;;;;;;;5034318;28;20455;-64
2022/09/15 08:01:19;;;;;;;5.70;2.87;;;;;;;;;;5034586;28;20457;-63
2022/09/15 08:03:47;;;;;;;4.93;2.67;;;;;;;;;;5034290;28;20539;-63
2022/09/15 08:06:16;;;;;;;7.20;2.73;;;;;;;;;;5034552;28;20476;-63
2022/09/15 08:08:44;;;;;;;3.53;2.53;;;;;;;;;;5033838;28;20451;-64
2022/09/15 08:11:13;;;;;;;7.63;2.93;;;;;;;;;;5033936;28;20452;-64
2022/09/15 08:13:40;;;;;;;7.10;2.77;;;;;;;;;;5033752;28;20479;-64
2022/09/15 08:16:08;;;;;;;3.33;2.37;;;;;;;;;;5034246;28;20453;-64
2022/09/15 08:18:35;;;;;;;5.97;3.13;;;;;;;;;;5033601;28;20942;-63
2022/09/15 08:21:05;;;;;;;6.13;3.03;;;;;;;;;;5033438;28;20484;-64
2022/09/15 08:23:34;;;;;;;7.00;3.10;;;;;;;;;;5034385;28;20441;-63
2022/09/15 08:26:01;;;;;;;5.70;2.53;;;;;;;;;;5033821;28;20796;-64
2022/09/15 08:28:28;;;;;;;4.33;2.10;;;;;;;;;;5033839;28;20472;-64
2022/09/15 08:31:00;;;;;;;4.97;2.00;;;;;;;;;;5033011;28;20478;-64
2022/09/15 08:33:27;;;;;;;11.10;2.73;;;;;;;;;;5033602;28;20434;-64
2022/09/15 08:35:54;;;;;;;5.90;2.10;;;;;;;;;;5033777;28;20445;-64
2022/09/15 08:38:21;;;;;;;3.43;1.83;;;;;;;;;;5033696;28;20439;-63
2022/09/15 08:40:50;;;;;;;3.13;1.97;;;;;;;;;;5034040;28;20527;-64
2022/09/15 08:43:19;;;;;;;4.53;2.30;;;;;;;;;;5033377;28;20962;-63
2022/09/15 08:45:50;;;;;;;4.53;2.20;;;;;;;;;;5033590;28;20856;-64
2022/09/15 08:48:19;;;;;;;6.37;2.30;;;;;;;;;;5034225;28;20453;-64
2022/09/15 08:50:51;;;;;;;7.50;2.17;;;;;;;;;;5033644;28;20443;-64
2022/09/15 08:53:20;;;;;;;6.07;1.70;;;;;;;;;;5034444;28;20460;-64
2022/09/15 08:55:49;;;;;;;6.80;2.37;;;;;;;;;;5033301;28;20955;-64
2022/09/15 08:58:18;;;;;;;4.87;2.03;;;;;;;;;;5033221;28;20459;-64
2022/09/15 09:00:47;;;;;;;3.83;1.80;;;;;;;;;;5033120;28;20515;-65
2022/09/15 09:03:22;;;;;;;4.03;2.00;;;;;;;;;;5033465;28;20450;-64
2022/09/15 09:05:54;;;;;;;3.20;1.63;;;;;;;;;;5033209;28;20438;-64
2022/09/15 09:08:48;;;;;;;4.90;2.20;;;;;;;;;;5034307;28;20440;-64
2022/09/15 09:11:19;;;;;;;6.40;1.97;;;;;;;;;;5033467;28;20444;-64
2022/09/15 09:13:50;;;;;;;3.97;2.00;;;;;;;;;;5033162;28;20454;-64
2022/09/15 09:16:26;;;;;;;6.00;2.60;;;;;;;;;;5033324;28;20441;-64
2022/09/15 09:18:58;;;;;;;4.13;1.87;;;;;;;;;;5033596;28;20786;-64
2022/09/15 09:21:28;;;;;;;5.70;2.23;;;;;;;;;;5033277;28;20503;-64
2022/09/15 09:23:58;;;;;;;3.70;2.20;;;;;;;;;;5033003;28;20433;-64
2022/09/15 09:26:26;;;;;;;7.70;2.20;;;;;;;;;;5033375;28;20468;-64
2022/09/15 09:28:56;;;;;;;3.97;2.27;;;;;;;;;;5033502;28;20800;-64
2022/09/15 09:31:24;;;;;;;4.50;2.03;;;;;;;;;;5033391;28;20498;-64
2022/09/15 09:33:52;;;;;;;9.10;2.83;;;;;;;;;;5033235;28;20469;-64
2022/09/15 09:36:20;;;;;;;3.83;2.30;;;;;;;;;;5033137;28;20443;-65
2022/09/15 09:38:48;;;;;;;5.80;2.50;;;;;;;;;;5032845;28;20444;-64
2022/09/15 09:41:17;;;;;;;7.80;2.70;;;;;;;;;;5032986;28;20480;-64
2022/09/15 09:43:46;;;;;;;5.07;2.53;;;;;;;;;;5034115;28;20455;-63
2022/09/15 09:46:16;;;;;;;5.80;3.07;;;;;;;;;;5036995;28;20802;-64
2022/09/15 09:48:49;;;;;;;7.20;2.70;;;;;;;;;;5036988;28;20444;-64
2022/09/15 09:51:36;;;;;;;6.13;2.60;;;;;;;;;;5037035;28;20437;-64
2022/09/15 09:54:05;;;;;;;4.73;2.40;;;;;;;;;;5032069;28;20543;-64
2022/09/15 09:56:32;;;;;;;6.60;2.63;;;;;;;;;;5036764;28;20446;-64
2022/09/15 09:59:01;;;;;;;5.40;2.40;;;;;;;;;;5036779;28;20448;-65
2022/09/15 10:01:30;;;;;;;4.50;2.13;;;;;;;;;;5036643;28;20489;-64
2022/09/15 10:04:14;;;;;;;7.97;2.20;;;;;;;;;;5036686;28;20454;-64
2022/09/15 10:06:41;;;;;;;8.23;2.80;;;;;;;;;;5036784;28;20524;-65
2022/09/15 10:09:10;;;;;;;5.53;2.00;;;;;;;;;;5036334;28;20450;-63
2022/09/15 10:11:40;;;;;;;3.73;2.07;;;;;;;;;;5036427;28;20461;-64
2022/09/15 10:14:07;;;;;;;3.10;1.90;;;;;;;;;;5036520;28;20445;-65
2022/09/15 10:16:36;;;;;;;3.73;3.43;;;;;;;;;;5036365;28;20801;-64
2022/09/15 10:19:03;;;;;;;7.40;2.20;;;;;;;;;;5036086;28;20454;-65
2022/09/15 10:21:30;;;;;;;4.40;1.80;;;;;;;;;;5035885;28;20477;-64
2022/09/15 10:23:58;;;;;;;6.30;1.80;;;;;;;;;;5036265;28;20438;-64
2022/09/15 10:26:32;;;;;;;3.33;2.17;;;;;;;;;;5036183;28;20515;-64
2022/09/15 10:29:11;;;;;;;4.40;2.10;;;;;;;;;;5036278;28;20436;-63
2022/09/15 10:31:40;;;;;;;4.47;2.10;;;;;;;;;;5035654;28;20600;-64
2022/09/15 10:34:27;;;;;;;7.13;2.10;;;;;;;;;;5035836;28;20446;-64
2022/09/15 10:36:55;;;;;;;2.20;1.50;;;;;;;;;;5035756;28;20463;-63
2022/09/15 10:39:30;;;;;;;2.90;1.00;;;;;;;;;;5036102;28;20439;-64
2022/09/15 10:42:00;;;;;;;1.70;1.27;;;;;;;;;;5036130;28;20516;-64
2022/09/15 10:44:33;;;;;;;4.53;1.20;;;;;;;;;;5035749;28;20485;-64
2022/09/15 10:47:09;;;;;;;3.63;1.70;;;;;;;;;;5036204;28;20563;-64
2022/09/15 10:49:53;;;;;;;4.07;1.70;;;;;;;;;;5036011;28;20430;-64
2022/09/15 10:52:28;;;;;;;4.73;1.70;;;;;;;;;;5035832;28;20448;-64
2022/09/15 10:55:08;;;;;;;2.60;1.30;;;;;;;;;;5035396;28;20434;-64
2022/09/15 10:57:46;;;;;;;5.73;1.30;;;;;;;;;;5035713;28;20770;-64
2022/09/15 11:00:18;;;;;;;3.70;1.60;;;;;;;;;;5035080;28;20476;-64
2022/09/15 11:03:06;;;;;;;3.60;1.70;;;;;;;;;;5035580;28;20455;-64
2022/09/15 11:05:40;;;;;;;3.30;1.40;;;;;;;;;;5035319;28;20939;-64
2022/09/15 11:08:21;;;;;;;1.40;1.30;;;;;;;;;;5035036;28;20446;-64
2022/09/15 11:10:51;;;;;;;4.50;1.73;;;;;;;;;;5035125;28;20444;-64
2022/09/15 11:13:21;;;;;;;2.30;1.20;;;;;;;;;;5035050;28;20942;-64
2022/09/15 11:15:55;;;;;;;1.70;1.20;;;;;;;;;;5035444;28;20459;-64
2022/09/15 11:18:32;;;;;;;3.53;1.70;;;;;;;;;;5035334;28;20429;-64
2022/09/15 11:21:20;;;;;;;3.67;1.03;;;;;;;;;;5035141;28;20472;-64
2022/09/15 11:23:51;;;;;;;2.20;1.33;;;;;;;;;;5035652;28;20787;-64
2022/09/15 11:26:21;;;;;;;2.93;1.23;;;;;;;;;;5035518;28;20443;-64
2022/09/15 11:28:51;;;;;;;3.20;1.30;;;;;;;;;;5035468;28;20440;-64
2022/09/15 11:31:20;;;;;;;3.93;1.60;;;;;;;;;;5034894;28;20567;-64
2022/09/15 11:33:50;;;;;;;2.03;1.30;;;;;;;;;;5034969;28;20803;-64
2022/09/15 11:36:21;;;;;;;3.93;1.30;;;;;;;;;;5035102;28;20452;-64
2022/09/15 11:38:51;;;;;;;2.50;1.40;;;;;;;;;;5035060;28;20784;-64
2022/09/15 11:41:20;;;;;;;2.60;1.63;;;;;;;;;;5034417;28;20477;-64
2022/09/15 11:44:04;;;;;;;3.57;1.33;;;;;;;;;;5034761;28;20819;-64
2022/09/15 11:46:36;;;;;;;6.00;1.50;;;;;;;;;;5034850;28;20429;-64
2022/09/15 11:49:05;;;;;;;2.70;1.20;;;;;;;;;;5034890;28;20870;-64
2022/09/15 11:51:35;;;;;;;3.47;1.40;;;;;;;;;;5034633;28;20466;-64
2022/09/15 11:54:06;;;;;;;2.70;1.50;;;;;;;;;;5034953;28;20438;-64
2022/09/15 11:56:36;;;;;;;1.63;1.10;;;;;;;;;;5035040;28;20783;-64
2022/09/15 11:59:06;;;;;;;4.27;1.70;;;;;;;;;;5035124;28;20441;-64
2022/09/15 12:01:36;;;;;;;2.30;1.40;;;;;;;;;;5034168;28;20856;-64
2022/09/15 12:04:06;;;;;;;3.37;1.53;;;;;;;;;;5034809;28;20811;-64
2022/09/15 12:06:36;;;;;;;1.80;1.37;;;;;;;;;;5033463;28;20941;-64
2022/09/15 12:09:05;;;;;;;2.00;1.43;;;;;;;;;;5034097;28;20431;-64
2022/09/15 12:11:33;;;;;;;3.23;1.60;;;;;;;;;;5034608;28;20443;-64
2022/09/15 12:14:00;;;;;;;1.60;1.10;;;;;;;;;;5034194;28;20795;-64
2022/09/15 12:16:28;;;;;;;4.60;1.90;;;;;;;;;;5033853;28;20446;-64
2022/09/15 12:18:58;;;;;;;1.63;1.20;;;;;;;;;;5033768;28;20448;-64
2022/09/15 12:21:32;;;;;;;3.67;1.53;;;;;;;;;;5034305;28;20493;-64
2022/09/15 12:24:04;;;;;;;2.63;1.30;;;;;;;;;;5033792;28;20431;-64
2022/09/15 12:26:33;;;;;;;3.80;1.50;;;;;;;;;;5034260;28;20428;-64
2022/09/15 12:29:01;;;;;;;1.20;1.10;;;;;;;;;;5033585;28;21050;-64
2022/09/15 12:31:30;;;;;;;4.10;1.30;;;;;;;;;;5033410;28;20890;-64
2022/09/15 12:33:59;;;;;;;2.87;1.73;;;;;;;;;;5033881;28;20494;-64
2022/09/15 12:36:35;;;;;;;3.20;1.60;;;;;;;;;;5033519;28;20449;-64
2022/09/15 12:39:06;;;;;;;4.10;1.30;;;;;;;;;;5033465;28;20457;-65
2022/09/15 12:41:33;;;;;;;5.90;1.57;;;;;;;;;;5033884;28;20474;-64
2022/09/15 12:44:04;;;;;;;5.27;1.90;;;;;;;;;;5033682;28;20455;-64
2022/09/15 12:46:31;;;;;;;3.70;1.70;;;;;;;;;;5034270;28;20439;-64
2022/09/15 12:49:02;;;;;;;1.83;1.60;;;;;;;;;;5033663;28;20539;-64
2022/09/15 12:51:30;;;;;;;6.37;1.67;;;;;;;;;;5033364;28;20445;-64
2022/09/15 12:53:59;;;;;;;2.07;1.40;;;;;;;;;;5033202;28;20935;-64
2022/09/15 12:56:28;;;;;;;2.30;1.30;;;;;;;;;;5033579;28;20445;-64
2022/09/15 12:58:56;;;;;;;3.47;1.70;;;;;;;;;;5033110;28;20939;-65
2022/09/15 13:01:33;;;;;;;6.63;1.70;;;;;;;;;;5033043;28;20492;-66
2022/09/15 13:04:17;;;;;;;3.63;1.33;;;;;;;;;;5033452;28;20457;-63
2022/09/15 13:07:04;;;;;;;4.87;1.23;;;;;;;;;;5033809;28;20443;-63
2022/09/15 13:09:43;;;;;;;3.23;1.50;;;;;;;;;;5032988;28;20445;-64
2022/09/15 13:12:13;;;;;;;2.67;1.50;;;;;;;;;;5033817;28;20432;-64
2022/09/15 13:14:41;;;;;;;4.80;1.57;;;;;;;;;;5033348;28;20443;-63
2022/09/15 13:17:15;;;;;;;4.03;1.60;;;;;;;;;;5033723;28;20476;-63
2022/09/15 13:19:45;;;;;;;4.80;1.57;;;;;;;;;;5037551;28;20486;-63
2022/09/15 13:22:18;;;;;;;6.43;1.83;;;;;;;;;;5037464;28;20477;-63
2022/09/15 13:24:47;;;;;;;3.03;1.70;;;;;;;;;;5037383;28;20458;-63
2022/09/15 13:27:18;;;;;;;7.50;1.63;;;;;;;;;;5037040;28;20939;-63
2022/09/15 13:29:47;;;;;;;6.00;1.73;;;;;;;;;;5035559;28;21020;-64
2022/09/15 13:32:20;;;;;;;4.30;1.50;;;;;;;;;;5035924;28;20537;-64
2022/09/15 13:35:17;;;;;;;4.87;1.60;;;;;;;;;;5036559;28;20453;-63
2022/09/15 13:37:56;;;;;;;6.87;1.70;;;;;;;;;;5037156;28;20985;-63
2022/09/15 13:40:34;;;;;;;5.70;1.90;;;;;;;;;;5036853;28;20430;-63
2022/09/15 13:43:13;;;;;;;2.70;1.20;;;;;;;;;;5036942;28;20438;-64
2022/09/15 13:45:47;;;;;;;2.57;1.30;;;;;;;;;;5036968;28;20441;-63
2022/09/15 13:48:26;;;;;;;3.83;1.50;;;;;;;;;;5036423;28;20448;-64
2022/09/15 13:50:57;;;;;;;4.10;2.40;;;;;;;;;;5036779;28;20440;-64
2022/09/15 13:53:32;;;;;;;4.10;1.30;;;;;;;;;;5036239;28;20440;-63
2022/09/15 13:56:02;;;;;;;1.70;1.33;;;;;;;;;;5036841;28;20438;-63
2022/09/15 13:58:31;;;;;;;6.30;1.53;;;;;;;;;;5036564;28;20437;-64
2022/09/15 14:01:00;;;;;;;5.83;2.00;;;;;;;;;;5036333;28;20849;-63
2022/09/15 14:03:32;;;;;;;10.00;1.77;;;;;;;;;;5036310;28;20455;-63
2022/09/15 14:06:00;;;;;;;2.13;1.30;;;;;;;;;;5036403;28;20915;-64
2022/09/15 14:08:29;;;;;;;8.33;1.53;;;;;;;;;;5036086;28;20972;-64
2022/09/15 14:10:58;;;;;;;1.90;1.33;;;;;;;;;;5036135;28;20942;-63
2022/09/15 14:13:27;;;;;;;7.83;1.50;;;;;;;;;;5036249;28;20467;-64
2022/09/15 14:16:02;;;;;;;3.00;1.60;;;;;;;;;;5035980;28;20953;-63
2022/09/15 14:18:30;;;;;;;4.67;1.40;;;;;;;;;;5036120;28;20453;-63
2022/09/15 14:20:59;;;;;;;2.03;1.47;;;;;;;;;;5036038;28;20448;-64
2022/09/15 14:23:26;;;;;;;3.90;1.53;;;;;;;;;;5035724;28;20492;-64
2022/09/15 14:25:53;;;;;;;4.33;1.63;;;;;;;;;;5035831;28;20447;-64
2022/09/15 14:28:24;;;;;;;5.10;1.80;;;;;;;;;;5036219;28;20453;-64
2022/09/15 14:30:51;;;;;;;4.70;1.73;;;;;;;;;;5034939;28;20562;-64
2022/09/15 14:33:20;;;;;;;8.77;2.20;;;;;;;;;;5035562;28;20944;-64
2022/09/15 14:35:47;;;;;;;3.60;2.00;;;;;;;;;;5035516;28;20445;-64
2022/09/15 14:38:21;;;;;;;3.00;1.60;;;;;;;;;;5036330;28;20456;-64
2022/09/15 14:40:52;;;;;;;7.47;1.30;;;;;;;;;;5035575;28;20494;-64
2022/09/15 14:43:25;;;;;;;3.03;1.47;;;;;;;;;;5035600;28;20853;-64
2022/09/15 14:45:52;;;;;;;5.60;1.60;;;;;;;;;;5035332;28;20554;-64
2022/09/15 14:48:25;;;;;;;2.70;1.40;;;;;;;;;;5035771;28;20453;-64